• Join FlightAware (Why Join?)
  • Login
  • US Flag 
07:52PM EDT


 

Airport Tracker/Info


-or-


 

Live Flight TrackerFlight Track Log ✈ EJA941 ✈ 14-Jan-2014 ✈ KLAS - KRSW

Flight Track Log - Related Links

Times and Time Zones

All times are in EST time to prevent confusion due to time zone crossing. See the EJA941 flight status page for this flight to view local times or setup timezone preferences in your user account.

Time Position Orientation Groundspeed Altitude Reporting Facility
EST Latitude Longitude Course Direction KTS MPH feet Rate Location/Type
03:27PM 36.1306 -115.1208 48° Northeast 204 235 5,500  Level Los Angeles Center
03:28PM 36.1339 -115.0725 85° East 230 265 7,200 2,760 Climbing Los Angeles Center
03:28PM 36.1364 -115.0578 78° East 248 285 7,800 3,840 Climbing Los Angeles Center
03:29PM 36.1347 -114.9789 91° East 278 320 11,200 3,600 Climbing Los Angeles Center
03:30PM 36.1111 -114.8900 108° East 291 335 14,600 3,240 Climbing Los Angeles Center
03:31PM 36.0778 -114.7650 108° East 315 362 18,000 2,700 Climbing Los Angeles Center
03:32PM 36.0494 -114.6536 107° East 335 386 20,300 2,160 Climbing Los Angeles Center
03:33PM 36.0164 -114.5317 108° East 375 432 22,500 1,980 Climbing Los Angeles Center
03:34PM 35.9947 -114.4036 102° East 383 441 24,500 1,980 Climbing Los Angeles Center
03:35PM 35.9756 -114.2697 100° East 395 455 26,700 2,100 Climbing Los Angeles Center
03:36PM 35.9556 -114.1311 100° East 408 470 28,900 1,860 Climbing Los Angeles Center
03:37PM 35.9300 -113.9567 100° East 430 495 30,600 1,260 Climbing Los Angeles Center
03:38PM 35.9019 -113.8028 103° East 458 527 31,600 960 Climbing Los Angeles Center
03:39PM 35.8681 -113.6417 105° East 482 555 32,600 960 Climbing Los Angeles Center
03:40PM 35.8381 -113.4936 104° East 488 562 33,600 900 Climbing Los Angeles Center
03:41PM 35.8047 -113.3281 104° East 496 571 34,500 660 Climbing Los Angeles Center
03:42PM 35.7631 -113.1286 104° East 499 574 35,000 480 Climbing Los Angeles Center
03:43PM 35.7281 -112.9589 104° East 508 585 35,600 720 Climbing Los Angeles Center
03:44PM 35.6936 -112.7933 104° East 500 575 36,600 780 Climbing Los Angeles Center
03:45PM 35.6644 -112.6628 105° East 492 566 37,300 720 Climbing Los Angeles Center
03:46PM 35.6217 -112.4644 105° East 499 574 38,200 720 Climbing Los Angeles Center
03:47PM 35.5783 -112.3025 108° East 501 577 38,900 720 Climbing Los Angeles Center
03:48PM 35.5228 -112.1428 113° Southeast 507 583 39,700 780 Climbing Los Angeles Center
03:49PM 35.4581 -111.9489 112° Southeast 511 588 40,600 600 Climbing Los Angeles Center
03:50PM 35.4033 -111.7881 113° Southeast 512 589 41,000 180 Climbing Los Angeles Center
03:51PM 35.3497 -111.6278 112° Southeast 516 594 41,000  Level Los Angeles Center
03:52PM 35.2908 -111.4600 113° Southeast 529 609 41,000  Level Los Angeles Center
03:53PM 35.2317 -111.2928 113° Southeast 534 615 41,000  Level Albuquerque Center
03:54PM 35.1742 -111.1247 113° Southeast 534 615 41,000  Level Albuquerque Center
03:55PM 35.1019 -110.9189 113° Southeast 541 623 41,000  Level Albuquerque Center
03:56PM 35.0311 -110.7558 118° Southeast 542 624 41,000  Level Albuquerque Center
03:58PM 34.9311 -110.6044 129° Southeast 538 619 41,000  Level Albuquerque Center
03:59PM 34.8400 -110.4683 129° Southeast 540 621 41,000  Level Albuquerque Center
04:00PM 34.7325 -110.3103 130° Southeast 542 624 41,000  Level Albuquerque Center
04:01PM 34.6392 -110.1739 130° Southeast 546 628 41,000  Level Albuquerque Center
04:02PM 34.5286 -110.0119 130° Southeast 552 635 41,000  Level Albuquerque Center
04:03PM 34.4347 -109.8753 130° Southeast 554 638 41,000 240 Level Albuquerque Center
04:04PM 34.3256 -109.7175 130° Southeast 550 633 41,500 420 Climbing Albuquerque Center
04:05PM 34.2325 -109.5831 130° Southeast 547 629 41,900 420 Climbing Albuquerque Center
04:06PM 34.1406 -109.4500 130° Southeast 543 625 42,400 480 Climbing Albuquerque Center
04:07PM 34.0303 -109.2953 131° Southeast 541 623 43,000 240 Climbing Albuquerque Center
04:08PM 33.9333 -109.1569 130° Southeast 541 623 43,000  Level Albuquerque Center
04:09PM 33.8333 -109.0183 131° Southeast 544 626 43,000  Level Albuquerque Center
04:10PM 33.7336 -108.8778 130° Southeast 549 632 43,000  Level Albuquerque Center
04:11PM 33.6328 -108.7358 130° Southeast 553 636 43,000  Level Albuquerque Center
04:12PM 33.5314 -108.5956 131° Southeast 554 638 43,000  Level Albuquerque Center
04:13PM 33.4086 -108.4242 131° Southeast 558 642 43,000  Level Albuquerque Center
04:14PM 33.3061 -108.2839 131° Southeast 559 643 43,000  Level Albuquerque Center
04:15PM 33.2047 -108.1456 131° Southeast 555 639 43,000  Level Albuquerque Center
04:16PM 33.1033 -108.0064 131° Southeast 554 638 43,000  Level Albuquerque Center
04:17PM 33.0028 -107.8686 131° Southeast 551 634 43,000  Level Albuquerque Center
04:18PM 32.9028 -107.7350 132° Southeast 551 634 43,000  Level Albuquerque Center
04:19PM 32.7836 -107.5731 131° Southeast 545 627 43,000  Level Albuquerque Center
04:20PM 32.6817 -107.4342 131° Southeast 545 627 43,000  Level Albuquerque Center
04:21PM 32.5828 -107.2975 131° Southeast 547 629 43,000  Level Albuquerque Center
04:22PM 32.4769 -107.1586 132° Southeast 548 631 43,000  Level Albuquerque Center
04:23PM 32.3711 -107.0111 130° Southeast 548 631 43,000  Level Albuquerque Center
04:24PM 32.2700 -106.8747 131° Southeast 550 633 43,000  Level Albuquerque Center
04:25PM 32.1703 -106.7456 132° Southeast 552 635 43,000  Level Albuquerque Center
04:26PM 32.0683 -106.6108 132° Southeast 551 634 43,000  Level Albuquerque Center
04:27PM 31.9647 -106.4767 132° Southeast 553 636 43,000  Level Albuquerque Center
04:29PM 31.8461 -106.3175 131° Southeast 556 640 43,000  Level Albuquerque Center
04:30PM 31.7822 -106.1494 114° Southeast 563 648 43,000  Level Albuquerque Center
04:31PM 31.7375 -105.9739 107° East 561 646 43,000  Level Albuquerque Center
04:32PM 31.6942 -105.7986 106° East 559 643 43,000  Level Albuquerque Center
04:33PM 31.6494 -105.6219 107° East 562 647 43,000  Level Albuquerque Center
04:34PM 31.6061 -105.4450 106° East 563 648 43,000  Level Albuquerque Center
04:35PM 31.5614 -105.2694 107° East 562 647 43,000  Level Albuquerque Center
04:36PM 31.5069 -105.0550 107° East 562 647 43,000  Level Albuquerque Center
04:37PM 31.4614 -104.8789 107° East 566 651 43,000  Level Albuquerque Center
04:38PM 31.4158 -104.7025 107° East 566 651 43,000  Level Albuquerque Center
04:39PM 31.3694 -104.5264 107° East 565 650 43,000  Level Albuquerque Center
04:40PM 31.3247 -104.3522 107° East 560 644 43,000  Level Albuquerque Center
04:41PM 31.2794 -104.1761 107° East 562 647 43,000  Level Albuquerque Center
04:42PM 31.2311 -104.0000 108° East 567 652 43,000  Level Albuquerque Center
04:43PM 31.1847 -103.8250 107° East 566 651 43,000  Level Albuquerque Center
04:44PM 31.1267 -103.6194 108° East 570 656 43,000  Level Albuquerque Center
04:45PM 31.0781 -103.4436 108° East 571 657 43,000  Level Albuquerque Center
04:46PM 31.0294 -103.2681 108° East 570 656 43,000  Level Albuquerque Center
04:47PM 30.9831 -103.0944 107° East 567 652 43,000  Level Albuquerque Center
04:48PM 30.9406 -102.8789 103° East 578 665 43,000  Level Albuquerque Center
04:49PM 30.9219 -102.6964 97° East 576 663 43,000  Level Albuquerque Center
04:50PM 30.9033 -102.5131 97° East 577 664 43,000  Level Albuquerque Center
04:51PM 30.8897 -102.3683 96° East 573 659 43,000 -60 Level Houston Center
04:52PM 30.8714 -102.1861 97° East 574 661 42,900  Descending Houston Center
04:53PM 30.8519 -102.0031 97° East 576 663 43,000  Climbing Houston Center
04:54PM 30.8325 -101.8203 97° East 575 662 43,000  Level Houston Center
04:55PM 30.8122 -101.6000 96° East 576 663 43,000  Level Houston Center
04:56PM 30.7956 -101.4147 96° East 575 662 43,000  Level Houston Center
04:57PM 30.7753 -101.2322 97° East 574 661 43,000  Level Houston Center
04:58PM 30.7583 -101.0453 96° East 577 664 43,000  Level Houston Center
04:59PM 30.7389 -100.8597 97° East 578 665 43,000  Level Houston Center
05:00PM 30.7192 -100.6742 97° East 577 664 43,000  Level Houston Center
05:01PM 30.7003 -100.4881 97° East 579 666 43,000  Level Houston Center
05:02PM 30.6756 -100.2642 97° East 580 667 43,000  Level Houston Center
05:03PM 30.6553 -100.0781 97° East 577 664 43,000  Level Houston Center
05:04PM 30.6353 -99.8906 97° East 581 669 43,000  Level Houston Center
05:05PM 30.6133 -99.7031 98° East 583 671 43,000  Level Houston Center
05:06PM 30.5928 -99.5161 97° East 583 671 43,000  Level Houston Center
05:07PM 30.5711 -99.3303 98° East 582 670 43,000  Level Houston Center
05:08PM 30.5511 -99.1442 97° East 582 670 43,000  Level Houston Center
05:10PM 30.5258 -98.9406 98° East 582 670 43,000  Level Houston Center
05:11PM 30.5053 -98.7519 97° East 585 673 43,000  Level Houston Center
05:12PM 30.4786 -98.5331 98° East 584 672 43,000  Level Houston Center
05:13PM 30.4547 -98.3453 98° East 584 672 43,000  Level Houston Center
05:14PM 30.4325 -98.1581 98° East 585 673 43,000  Level Houston Center
05:15PM 30.4086 -97.9714 98° East 585 673 43,000  Level Houston Center
05:16PM 30.3858 -97.7844 98° East 585 673 43,000  Level Houston Center
05:17PM 30.3619 -97.5983 98° East 584 672 43,000  Level Houston Center
05:18PM 30.3344 -97.3803 98° East 585 673 43,000  Level Houston Center
05:19PM 30.3097 -97.1939 99° East 585 673 43,000  Level Houston Center
05:20PM 30.2853 -97.0061 99° East 587 676 43,000  Level Houston Center
05:21PM 30.2606 -96.8194 99° East 586 674 43,000  Level Houston Center
05:22PM 30.2353 -96.6317 99° East 588 677 43,000  Level Houston Center
05:23PM 30.2047 -96.4136 99° East 587 676 43,000  Level Houston Center
05:24PM 30.1789 -96.2258 99° East 588 677 43,000  Level Houston Center
05:25PM 30.1522 -96.0397 99° East 585 673 43,000  Level Houston Center
05:26PM 30.1294 -95.8736 99° East 585 673 43,000  Level Houston Center
05:27PM 30.0961 -95.6503 100° East 586 674 43,000  Level Houston Center
05:28PM 30.0703 -95.4636 99° East 587 676 43,000  Level Houston Center
05:29PM 30.0428 -95.2758 100° East 589 678 43,000  Level Houston Center
05:30PM 30.0147 -95.0875 100° East 590 679 43,000  Level Houston Center
05:31PM 29.9869 -94.8986 100° East 591 680 43,000  Level Houston Center
05:32PM 29.9586 -94.7083 100° East 596 686 43,000  Level Houston Center
05:33PM 29.9297 -94.5186 100° East 598 688 43,000  Level Houston Center
05:34PM 29.8947 -94.2928 100° East 597 687 43,000  Level Houston Center
05:35PM 29.8683 -94.1256 100° East 602 693 43,000  Level Houston Center
05:36PM 29.8339 -93.9025 100° East 598 688 43,000  Level Houston Center
05:37PM 29.8047 -93.7178 100° East 595 685 43,000  Level Houston Center
05:39PM 29.7750 -93.5328 100° East 594 684 43,000  Level Houston Center
05:40PM 29.7442 -93.3483 101° East 594 684 43,000  Level Houston Center
05:41PM 29.7150 -93.1633 100° East 594 684 43,000  Level Houston Center
05:42PM 29.6783 -92.9403 101° East 595 685 43,000  Level Houston Center
05:43PM 29.6472 -92.7558 101° East 594 684 43,000 -60 Level Houston Center
05:44PM 29.6086 -92.5719 104° East 595 685 42,900  Descending Houston Center
05:45PM 29.5619 -92.3900 106° East 596 686 43,000  Climbing Houston Center
05:46PM 29.5161 -92.2086 106° East 593 682 43,000  Level Houston Center
05:47PM 29.4589 -91.9900 107° East 596 686 43,000  Level Houston Center
05:48PM 29.4133 -91.8086 106° East 596 686 43,000  Level Houston Center
05:49PM 29.3658 -91.6250 106° East 597 687 43,000  Level Houston Center
05:50PM 29.3192 -91.4425 106° East 599 689 43,000  Level Houston Center
05:51PM 29.2731 -91.2625 106° East 595 685 43,000  Level Houston Center
05:52PM 29.2156 -91.0475 107° East 593 682 43,000  Level Houston Center
05:53PM 29.1672 -90.8661 107° East 595 685 43,000  Level Houston Center
05:54PM 29.1208 -90.6889 107° East 591 680 43,000  Level Houston Center
05:55PM 29.0736 -90.5119 107° East 586 674 43,000  Level Houston Center
05:56PM 29.0253 -90.3356 107° East 586 674 43,000  Level Houston Center
05:57PM 28.9778 -90.1567 107° East 589 678 43,000  Level Houston Center
05:58PM 28.9189 -89.9442 108° East 589 678 43,000  Level Houston Center
05:59PM 28.8717 -89.7669 107° East 589 678 43,000  Level Houston Center
06:00PM 28.8225 -89.5897 108° East 588 677 43,000  Level Houston Center
06:01PM 28.7731 -89.4086 107° East 597 687 43,000  Level Houston Center
06:02PM 28.7233 -89.2314 108° East 593 682 43,000  Level Houston Center
06:03PM 28.6639 -89.0181 108° East 591 680 43,000  Level Houston Center
06:04PM 28.6142 -88.8433 108° East 586 674 43,000  Level Houston Center
06:05PM 28.5633 -88.6672 108° East 586 674 43,000  Level Houston Center
06:06PM 28.5144 -88.4911 107° East 587 676 43,000  Level Houston Center
06:07PM 28.4639 -88.3144 108° East 588 677 43,000  Level Houston Center
06:09PM 28.4028 -88.1042 108° East 587 676 43,000  Level Houston Center
06:10PM 28.3578 -87.9456 108° East 588 677 43,000  Level Houston Center
06:11PM 28.3067 -87.7692 108° East 590 679 43,000  Level Houston Center
06:12PM 28.2456 -87.5597 108° East 587 676 43,000  Level Houston Center
06:13PM 28.1947 -87.3844 108° East 588 677 43,000  Level Houston Center
06:14PM 28.1428 -87.2089 109° East 588 677 43,000  Level Houston Center
06:15PM 28.0914 -87.0325 108° East 590 679 43,000  Level Houston Center
06:16PM 28.0336 -86.8406 109° East 585 673 43,000  Level Houston Center
06:17PM 27.9781 -86.6511 108° East 584 672 43,000  Level Houston Center
06:18PM 27.9278 -86.4783 108° East 582 670 43,000  Level Houston Center
06:19PM 27.8753 -86.3033 109° East 585 673 43,000  Level Jacksonville Center
06:20PM 27.8236 -86.1258 108° East 585 673 43,000  Level Jacksonville Center
06:21PM 27.7733 -85.9600 109° East 573 659 43,000  Level Jacksonville Center
06:22PM 27.7211 -85.7828 108° East 572 658 43,000  Level Jacksonville Center
06:23PM 27.6739 -85.6006 106° East 569 655 43,000  Level Miami Center
06:24PM 27.6222 -85.4211 108° East 581 669 43,000  Level Miami Center
06:25PM 27.5742 -85.2469 107° East 581 669 43,000  Level Miami Center
06:26PM 27.5361 -85.0758 104° East 572 658 43,000  Level Miami Center
06:27PM 27.4956 -84.9047 105° East 565 650 43,000  Level Miami Center
06:28PM 27.4489 -84.7308 107° East 571 657 43,000  Level Miami Center
06:29PM 27.4039 -84.5594 106° East 571 657 43,000  Level Miami Center
06:30PM 27.3547 -84.3881 108° East 571 657 43,000  Level Miami Center
06:31PM 27.3153 -84.2197 105° East 566 651 43,000  Level Miami Center
06:32PM 27.2719 -84.0492 106° East 566 651 43,000  Level Miami Center
06:33PM 27.2261 -83.8758 107° East 566 651 43,000 -900 Level Miami Center
06:34PM 27.1803 -83.7053 107° East 566 651 41,200 -2,700 Descending Miami Center
06:35PM 27.1381 -83.5372 106° East 566 651 37,700 -3,600 Descending Miami Center
06:36PM 27.0894 -83.3642 107° East 571 657 34,100 -3,600 Descending Miami Center
06:37PM 27.0469 -83.1964 106° East 571 657 30,500 -3,600 Descending Miami Center
06:38PM 27.0019 -83.0286 107° East 566 651 26,900 -3,540 Descending Miami Center
06:39PM 26.9606 -82.8728 107° East 553 636 23,500 -3,300 Descending Miami Center
06:40PM 26.9208 -82.7242 107° East 521 600 20,400 -3,000 Descending Miami Center
06:41PM 26.8842 -82.5919 107° East 480 552 17,600 -2,940 Descending Miami Center
06:42PM 26.8456 -82.4619 108° East 414 476 14,600 -2,700 Descending Miami Center
06:43PM 26.8142 -82.3514 108° East 375 432 12,200 -2,280 Descending Miami Center
06:44PM 26.7633 -82.2628 123° Southeast 343 395 10,100 -1,920 Descending Miami Center
06:45PM 26.6967 -82.2064 143° Southeast 308 354 8,400 -1,620 Descending Miami Center
06:46PM 26.6336 -82.1569 145° Southeast 292 336 6,900 -1,500 Descending Miami Center
06:47PM 26.5728 -82.1078 144° Southeast 270 311 5,400 -960 Descending Miami Center
06:48PM 26.5161 -82.0611 144° Southeast 264 304 5,000 -600 Descending Miami Center
06:49PM 26.4569 -82.0169 146° Southeast 259 298 4,300 -540 Descending Miami Center
06:50PM 26.4133 -81.9569 129° Southeast 259 298 4,000 -300 Descending Miami Center
06:52PM 26.5333 -81.7500 50° Northeast  Level FlightAware Approximate
06:59PM 26.5362 -81.7552 50° Northeast  Level Estimated
07:00PM 26.5333 -81.7500 50° Northeast  Level FlightAware Approximate
07:01PM 26.5362 -81.7552 50° Northeast  Level Estimated
07:02PM 26.5333 -81.7500 50° Northeast  Level FlightAware Approximate
07:03PM 26.5362 -81.7552 50° Northeast  Level Estimated
07:04PM 26.5333 -81.7500 50° Northeast  Level FlightAware Approximate
07:05PM 26.5362 -81.7552 50° Northeast  Level Estimated